createdAt,value
2019-03-15T00:00:42.897Z,6.15
2019-03-15T00:01:42.870Z,6.15
2019-03-15T00:02:42.725Z,6.08
2019-03-15T00:03:42.684Z,6.13
2019-03-15T00:04:42.603Z,6.14
2019-03-15T00:05:42.466Z,6.11
2019-03-15T00:06:42.340Z,6.08
2019-03-15T00:07:42.318Z,6.08
2019-03-15T00:08:42.164Z,6.10
2019-03-15T00:09:42.101Z,6.00
2019-03-15T00:10:42.087Z,6.06
2019-03-15T00:11:41.984Z,5.99
2019-03-15T00:12:41.947Z,5.97
2019-03-15T00:13:41.870Z,5.95
2019-03-15T00:14:41.758Z,5.93
2019-03-15T00:15:41.610Z,5.89
2019-03-15T00:16:41.567Z,5.83
2019-03-15T00:17:41.490Z,5.81
2019-03-15T00:18:41.363Z,5.88
2019-03-15T00:19:41.337Z,5.83
2019-03-15T00:20:41.188Z,5.81
2019-03-15T00:21:41.115Z,5.80
2019-03-15T00:22:41.040Z,5.85
2019-03-15T00:23:41.018Z,5.81
2019-03-15T00:24:40.926Z,5.83
2019-03-15T00:25:40.880Z,5.81
2019-03-15T00:26:40.720Z,5.80
2019-03-15T00:27:40.685Z,5.81
2019-03-15T00:28:40.582Z,5.74
2019-03-15T00:29:40.513Z,5.77
2019-03-15T00:30:40.375Z,5.74
2019-03-15T00:31:40.411Z,5.80
2019-03-15T00:32:40.278Z,5.75
2019-03-15T00:33:40.170Z,5.72
2019-03-15T00:34:40.128Z,5.74
2019-03-15T00:35:40.016Z,5.72
2019-03-15T00:36:40.000Z,5.77
2019-03-15T00:37:39.848Z,5.77
2019-03-15T00:38:39.767Z,5.72
2019-03-15T00:39:39.676Z,5.70
2019-03-15T00:40:39.617Z,5.77
2019-03-15T00:41:39.501Z,5.71
2019-03-15T00:42:39.475Z,5.74
2019-03-15T00:43:39.442Z,5.78
2019-03-15T00:44:39.281Z,5.81
2019-03-15T00:45:39.238Z,5.75
2019-03-15T00:46:39.191Z,5.85
2019-03-15T00:47:39.086Z,5.83
2019-03-15T00:48:38.903Z,5.83
2019-03-15T00:49:38.915Z,5.85
2019-03-15T00:50:38.845Z,5.88
2019-03-15T00:51:38.794Z,5.92
2019-03-15T00:52:38.659Z,5.83
2019-03-15T00:53:38.534Z,5.96
2019-03-15T00:54:38.400Z,5.99
2019-03-15T00:55:38.319Z,5.95
2019-03-15T00:56:38.408Z,5.99
2019-03-15T00:57:38.219Z,5.95
2019-03-15T00:58:38.184Z,5.97
2019-03-15T00:59:37.997Z,5.85
2019-03-15T01:00:38.010Z,5.90
2019-03-15T01:01:37.899Z,5.77
2019-03-15T01:02:37.765Z,5.81
2019-03-15T01:03:37.736Z,5.81
2019-03-15T01:04:37.713Z,5.83
2019-03-15T01:05:37.567Z,5.86
2019-03-15T01:06:37.491Z,5.81
2019-03-15T01:07:37.403Z,5.86
2019-03-15T01:08:37.410Z,5.77
2019-03-15T01:09:37.229Z,5.74
2019-03-15T01:10:37.153Z,5.72
2019-03-15T01:11:37.071Z,5.71
2019-03-15T01:12:36.969Z,5.71
2019-03-15T01:13:37.133Z,5.65
2019-03-15T01:14:36.908Z,5.65
2019-03-15T01:15:36.759Z,5.59
2019-03-15T01:16:36.637Z,5.67
2019-03-15T01:17:36.618Z,5.62
2019-03-15T01:18:36.525Z,5.56
2019-03-15T01:19:36.643Z,5.57
2019-03-15T01:20:36.325Z,5.52
2019-03-15T01:21:36.302Z,5.62
2019-03-15T01:22:36.188Z,5.59
2019-03-15T01:23:36.057Z,5.63
2019-03-15T01:24:35.989Z,5.57
2019-03-15T01:25:35.888Z,5.67
2019-03-15T01:26:35.827Z,5.60
2019-03-15T01:27:35.774Z,5.70
2019-03-15T01:28:35.675Z,5.63
2019-03-15T01:29:35.564Z,5.63
2019-03-15T01:30:35.492Z,5.60
2019-03-15T01:31:35.424Z,5.67
2019-03-15T01:32:35.299Z,5.63
2019-03-15T01:33:35.236Z,5.65
2019-03-15T01:34:35.191Z,5.60
2019-03-15T01:35:35.052Z,5.67
2019-03-15T01:36:34.988Z,5.60
2019-03-15T01:37:34.898Z,5.65
2019-03-15T01:38:34.856Z,5.62
2019-03-15T01:39:35.426Z,5.63
2019-03-15T01:40:34.695Z,5.71
2019-03-15T01:41:34.587Z,5.72
2019-03-15T01:42:34.521Z,5.68
2019-03-15T01:43:34.438Z,5.70
2019-03-15T01:44:34.370Z,5.62
2019-03-15T01:45:34.307Z,5.65
2019-03-15T01:46:34.195Z,5.63
2019-03-15T01:47:34.102Z,5.54
2019-03-15T01:48:34.102Z,5.52
2019-03-15T01:49:34.034Z,5.52
2019-03-15T01:50:33.885Z,5.57
2019-03-15T01:51:33.741Z,5.63
2019-03-15T01:52:33.731Z,5.67
2019-03-15T01:53:33.640Z,5.68
2019-03-15T01:54:33.539Z,5.67
2019-03-15T01:55:33.461Z,5.59
2019-03-15T01:56:33.386Z,5.68
2019-03-15T01:57:33.294Z,5.52
2019-03-15T01:58:33.208Z,5.54
2019-03-15T01:59:33.109Z,5.65
2019-03-15T02:00:32.997Z,5.57
2019-03-15T02:01:32.919Z,5.57
2019-03-15T02:02:32.901Z,5.57
2019-03-15T02:03:32.756Z,5.50
2019-03-15T02:04:32.726Z,5.59
2019-03-15T02:05:32.597Z,5.67
2019-03-15T02:06:32.510Z,5.53
2019-03-15T02:07:32.478Z,5.49
2019-03-15T02:08:32.406Z,5.52
2019-03-15T02:09:32.268Z,5.49
2019-03-15T02:10:32.198Z,5.39
2019-03-15T02:11:32.155Z,5.49
2019-03-15T02:12:32.016Z,5.38
2019-03-15T02:13:32.014Z,5.47
2019-03-15T02:14:31.891Z,5.34
2019-03-15T02:15:31.828Z,5.38
2019-03-15T02:16:31.689Z,5.35
2019-03-15T02:17:31.603Z,5.34
2019-03-15T02:18:31.529Z,5.41
2019-03-15T02:19:31.447Z,5.35
2019-03-15T02:20:31.405Z,5.31
2019-03-15T02:21:31.328Z,5.35
2019-03-15T02:22:31.195Z,5.38
2019-03-15T02:23:31.131Z,5.38
2019-03-15T02:24:31.101Z,5.31
2019-03-15T02:25:30.951Z,5.24
2019-03-15T02:26:30.919Z,5.31
2019-03-15T02:27:30.818Z,5.32
2019-03-15T02:28:30.735Z,5.24
2019-03-15T02:29:30.686Z,5.31
2019-03-15T02:30:30.537Z,5.34
2019-03-15T02:31:30.508Z,5.29
2019-03-15T02:32:30.375Z,5.32
2019-03-15T02:33:30.339Z,5.32
2019-03-15T02:34:30.242Z,5.34
2019-03-15T02:35:30.127Z,5.23
2019-03-15T02:36:30.057Z,5.29
2019-03-15T02:37:29.991Z,5.32
2019-03-15T02:38:29.886Z,5.36
2019-03-15T02:39:29.802Z,5.29
2019-03-15T02:40:29.728Z,5.29
2019-03-15T02:41:29.667Z,5.21
2019-03-15T02:42:29.559Z,5.26
2019-03-15T02:43:29.542Z,5.29
2019-03-15T02:44:29.403Z,5.26
2019-03-15T02:45:29.394Z,5.28
2019-03-15T02:46:29.307Z,5.26
2019-03-15T02:47:29.238Z,5.21
2019-03-15T02:48:29.114Z,5.24
2019-03-15T02:49:29.061Z,5.21
2019-03-15T02:50:29.382Z,5.21
2019-03-15T02:51:28.838Z,5.13
2019-03-15T02:52:28.882Z,5.29
2019-03-15T02:53:28.670Z,5.31
2019-03-15T02:54:28.600Z,5.34
2019-03-15T02:55:28.502Z,5.38
2019-03-15T02:56:28.499Z,5.47
2019-03-15T02:57:28.358Z,5.39
2019-03-15T02:58:28.404Z,5.38
2019-03-15T02:59:28.191Z,5.45
2019-03-15T03:00:28.138Z,5.53
2019-03-15T03:01:28.006Z,5.49
2019-03-15T03:02:28.057Z,5.49
2019-03-15T03:03:27.923Z,5.57
2019-03-15T03:04:27.828Z,5.59
2019-03-15T03:05:27.758Z,5.53
2019-03-15T03:06:28.218Z,5.54
2019-03-15T03:07:27.597Z,5.62
2019-03-15T03:08:27.478Z,5.67
2019-03-15T03:09:27.356Z,5.63
2019-03-15T03:10:27.478Z,5.56
2019-03-15T03:11:27.184Z,5.57
2019-03-15T03:12:27.230Z,5.63
2019-03-15T03:13:27.113Z,5.62
2019-03-15T03:14:26.971Z,5.62
2019-03-15T03:15:26.950Z,5.62
2019-03-15T03:16:26.865Z,5.60
2019-03-15T03:17:26.699Z,5.56
2019-03-15T03:18:26.613Z,5.65
2019-03-15T03:19:27.575Z,5.68
2019-03-15T03:20:26.472Z,5.74
2019-03-15T03:21:26.528Z,5.75
2019-03-15T03:22:26.325Z,5.85
2019-03-15T03:23:26.276Z,5.81
2019-03-15T03:24:26.217Z,5.83
2019-03-15T03:25:26.083Z,5.85
2019-03-15T03:26:26.108Z,5.80
2019-03-15T03:27:25.935Z,5.86
2019-03-15T03:28:25.874Z,5.88
2019-03-15T03:29:25.713Z,5.96
2019-03-15T03:30:25.650Z,5.92
2019-03-15T03:31:25.641Z,5.96
2019-03-15T03:32:25.553Z,5.99
2019-03-15T03:33:25.486Z,5.97
2019-03-15T03:34:25.433Z,6.00
2019-03-15T03:35:25.299Z,5.95
2019-03-15T03:36:25.235Z,6.11
2019-03-15T03:37:25.094Z,6.10
2019-03-15T03:38:25.129Z,6.08
2019-03-15T03:39:24.982Z,6.08
2019-03-15T03:40:24.806Z,6.15
2019-03-15T03:41:24.788Z,5.97
2019-03-15T03:42:24.734Z,6.00
2019-03-15T03:43:24.618Z,6.11
2019-03-15T03:44:24.596Z,6.07
2019-03-15T03:45:24.465Z,6.06
2019-03-15T03:46:24.402Z,6.04
2019-03-15T03:47:24.309Z,6.08
2019-03-15T03:48:24.209Z,6.04
2019-03-15T03:49:24.200Z,6.06
2019-03-15T03:50:24.040Z,5.97
2019-03-15T03:51:24.020Z,6.08
2019-03-15T03:52:23.865Z,5.99
2019-03-15T03:53:24.102Z,6.06
2019-03-15T03:54:23.738Z,6.00
2019-03-15T03:55:23.610Z,5.99
2019-03-15T03:56:23.594Z,6.08
2019-03-15T03:57:23.427Z,6.03
2019-03-15T03:58:23.352Z,6.08
2019-03-15T03:59:23.257Z,6.11
2019-03-15T04:00:23.272Z,6.07
2019-03-15T04:01:23.084Z,6.04
2019-03-15T04:02:23.100Z,6.04
2019-03-15T04:03:22.983Z,6.06
2019-03-15T04:04:22.885Z,6.10
2019-03-15T04:05:22.874Z,5.95
2019-03-15T04:06:22.783Z,6.00
2019-03-15T04:07:22.637Z,6.07
2019-03-15T04:08:22.568Z,6.13
2019-03-15T04:09:22.547Z,6.11
2019-03-15T04:10:22.464Z,6.13
2019-03-15T04:11:22.368Z,6.06
2019-03-15T04:12:22.222Z,6.13
2019-03-15T04:13:22.169Z,6.14
2019-03-15T04:14:22.026Z,6.24
2019-03-15T04:15:21.990Z,6.26
2019-03-15T04:16:21.876Z,6.14
2019-03-15T04:17:21.838Z,6.17
2019-03-15T04:18:21.743Z,6.21
2019-03-15T04:19:21.672Z,6.21
2019-03-15T04:20:21.609Z,6.24
2019-03-15T04:21:21.523Z,6.24
2019-03-15T04:22:21.387Z,6.22
2019-03-15T04:23:21.374Z,6.24
2019-03-15T04:24:21.300Z,6.26
2019-03-15T04:25:21.230Z,6.27
2019-03-15T04:26:21.134Z,6.37
2019-03-15T04:27:21.044Z,6.29
2019-03-15T04:28:21.054Z,6.39
2019-03-15T04:29:20.855Z,6.30
2019-03-15T04:30:20.758Z,6.32
2019-03-15T04:31:20.650Z,6.36
2019-03-15T04:32:20.621Z,6.34
2019-03-15T04:33:20.492Z,6.36
2019-03-15T04:34:20.381Z,6.36
2019-03-15T04:35:20.305Z,6.36
2019-03-15T04:36:20.244Z,6.33
2019-03-15T04:37:22.725Z,6.37
2019-03-15T04:38:20.084Z,6.39
2019-03-15T04:39:20.045Z,6.36
2019-03-15T04:40:19.884Z,6.36
2019-03-15T04:41:19.811Z,6.44
2019-03-15T04:42:19.785Z,6.39
2019-03-15T04:43:19.672Z,6.41
2019-03-15T04:44:19.672Z,6.34
2019-03-15T04:45:19.571Z,6.37
2019-03-15T04:46:19.506Z,6.36
2019-03-15T04:47:19.378Z,6.37
2019-03-15T04:48:19.242Z,6.33
2019-03-15T04:49:19.226Z,6.36
2019-03-15T04:50:19.163Z,6.36
2019-03-15T04:51:19.072Z,6.34
2019-03-15T04:52:18.957Z,6.32
2019-03-15T04:53:18.986Z,6.33
2019-03-15T04:54:18.746Z,6.29
2019-03-15T04:55:18.733Z,6.34
2019-03-15T04:56:18.717Z,6.32
2019-03-15T04:57:18.560Z,6.32
2019-03-15T04:58:18.421Z,6.34
2019-03-15T04:59:18.366Z,6.34
2019-03-15T05:00:18.260Z,6.34
2019-03-15T05:01:18.212Z,6.30
2019-03-15T05:02:18.154Z,6.24
2019-03-15T05:03:18.047Z,6.27
2019-03-15T05:04:17.976Z,6.15
2019-03-15T05:05:17.889Z,6.24
2019-03-15T05:06:17.798Z,6.22
2019-03-15T05:07:17.772Z,6.22
2019-03-15T05:08:17.632Z,6.22
2019-03-15T05:09:17.522Z,6.24
2019-03-15T05:10:17.497Z,6.22
2019-03-15T05:11:17.409Z,6.33
2019-03-15T05:12:17.365Z,6.24
2019-03-15T05:13:17.285Z,6.27
2019-03-15T05:14:17.200Z,6.21
2019-03-15T05:15:17.097Z,6.30
2019-03-15T05:16:17.068Z,6.30
2019-03-15T05:17:16.996Z,6.30
2019-03-15T05:18:16.788Z,6.30
2019-03-15T05:19:16.820Z,6.30
2019-03-15T05:20:16.716Z,6.30
2019-03-15T05:21:16.593Z,6.27
2019-03-15T05:22:16.538Z,6.39
2019-03-15T05:23:16.399Z,6.29
2019-03-15T05:24:16.337Z,6.41
2019-03-15T05:25:16.266Z,6.32
2019-03-15T05:26:16.205Z,6.32
2019-03-15T05:27:16.063Z,6.34
2019-03-15T05:28:16.089Z,6.39
2019-03-15T05:29:15.987Z,6.37
2019-03-15T05:30:15.903Z,6.34
2019-03-15T05:31:15.808Z,6.45
2019-03-15T05:32:15.693Z,6.34
2019-03-15T05:33:15.571Z,6.42
2019-03-15T05:34:15.529Z,6.41
2019-03-15T05:35:15.410Z,6.41
2019-03-15T05:36:15.435Z,6.41
2019-03-15T05:37:15.305Z,6.41
2019-03-15T05:38:15.250Z,6.42
2019-03-15T05:39:15.169Z,6.50
2019-03-15T05:40:15.098Z,6.48
2019-03-15T05:41:14.994Z,6.45
2019-03-15T05:42:14.891Z,6.45
2019-03-15T05:43:15.048Z,6.45
2019-03-15T05:44:14.852Z,6.42
2019-03-15T05:45:14.633Z,6.48
2019-03-15T05:46:14.617Z,6.45
2019-03-15T05:47:14.557Z,6.44
2019-03-15T05:48:14.381Z,6.52
2019-03-15T05:49:14.286Z,6.44
2019-03-15T05:50:14.242Z,6.48
2019-03-15T05:51:14.097Z,6.44
2019-03-15T05:52:14.024Z,6.41
2019-03-15T05:53:14.038Z,6.41
2019-03-15T05:54:13.913Z,6.57
2019-03-15T05:55:13.806Z,6.57
2019-03-15T05:56:13.755Z,6.52
2019-03-15T05:57:13.638Z,6.54
2019-03-15T05:58:13.587Z,6.52
2019-03-15T05:59:13.559Z,6.54
2019-03-15T06:00:13.454Z,6.62
2019-03-15T06:01:13.342Z,6.52
2019-03-15T06:02:13.208Z,6.55
2019-03-15T06:03:13.227Z,6.52
2019-03-15T06:04:13.157Z,6.52
2019-03-15T06:05:12.999Z,6.45
2019-03-15T06:06:12.933Z,6.52
2019-03-15T06:07:12.865Z,6.55
2019-03-15T06:08:12.721Z,6.63
2019-03-15T06:09:12.640Z,6.55
2019-03-15T06:10:12.615Z,6.62
2019-03-15T06:11:12.459Z,6.62
2019-03-15T06:12:12.405Z,6.66
2019-03-15T06:13:12.374Z,6.66
2019-03-15T06:14:12.376Z,6.68
2019-03-15T06:15:12.299Z,6.69
2019-03-15T06:16:12.122Z,6.66
2019-03-15T06:17:12.022Z,6.66
2019-03-15T06:18:11.943Z,6.63
2019-03-15T06:19:11.887Z,6.62
2019-03-15T06:20:11.776Z,6.69
2019-03-15T06:21:11.698Z,6.65
2019-03-15T06:22:11.696Z,6.66
2019-03-15T06:23:11.529Z,6.65
2019-03-15T06:24:11.449Z,6.63
2019-03-15T06:25:11.321Z,6.60
2019-03-15T06:26:11.297Z,6.68
2019-03-15T06:27:11.168Z,6.63
2019-03-15T06:28:11.070Z,6.65
2019-03-15T06:29:11.003Z,6.63
2019-03-15T06:30:10.947Z,6.65
2019-03-15T06:31:10.827Z,6.62
2019-03-15T06:32:10.818Z,6.60
2019-03-15T06:33:10.728Z,6.63
2019-03-15T06:34:10.635Z,6.68
2019-03-15T06:35:10.518Z,6.66
2019-03-15T06:36:10.495Z,6.54
2019-03-15T06:37:10.392Z,6.50
2019-03-15T06:38:10.259Z,6.62
2019-03-15T06:39:10.185Z,6.54
2019-03-15T06:40:13.316Z,6.57
2019-03-15T06:41:10.018Z,6.65
2019-03-15T06:42:09.938Z,6.63
2019-03-15T06:43:13.054Z,6.66
2019-03-15T06:44:09.802Z,6.62
2019-03-15T06:45:09.686Z,6.73
2019-03-15T06:46:09.614Z,6.72
2019-03-15T06:47:09.578Z,6.70
2019-03-15T06:48:09.496Z,6.72
2019-03-15T06:49:09.371Z,6.78
2019-03-15T06:50:09.278Z,6.70
2019-03-15T06:51:09.471Z,6.73
2019-03-15T06:52:09.117Z,6.69
2019-03-15T06:53:09.045Z,6.75
2019-03-15T06:54:11.795Z,6.75
2019-03-15T06:55:08.936Z,6.75
2019-03-15T06:56:08.793Z,6.70
2019-03-15T06:57:08.760Z,6.75
2019-03-15T06:58:08.672Z,6.78
2019-03-15T06:59:08.586Z,6.75
2019-03-15T07:00:08.505Z,6.80
2019-03-15T07:01:08.433Z,6.81
2019-03-15T07:02:08.311Z,6.81
2019-03-15T07:03:08.225Z,6.83
2019-03-15T07:04:08.189Z,6.81
2019-03-15T07:05:08.085Z,6.88
2019-03-15T07:06:07.980Z,6.83
2019-03-15T07:07:07.954Z,6.83
2019-03-15T07:08:07.819Z,6.78
2019-03-15T07:09:07.738Z,6.78
2019-03-15T07:10:07.660Z,6.87
2019-03-15T07:11:07.632Z,6.93
2019-03-15T07:12:09.749Z,6.94
2019-03-15T07:13:07.417Z,6.93
2019-03-15T07:14:07.334Z,6.93
2019-03-15T07:15:07.263Z,6.91
2019-03-15T07:16:07.172Z,7.01
2019-03-15T07:17:07.148Z,6.98
2019-03-15T07:18:07.982Z,6.96
2019-03-15T07:19:06.968Z,6.93
2019-03-15T07:20:06.844Z,6.96
2019-03-15T07:21:06.796Z,6.93
2019-03-15T07:22:06.740Z,7.05
2019-03-15T07:23:06.611Z,6.98
2019-03-15T07:24:06.531Z,6.98
2019-03-15T07:25:06.500Z,6.99
2019-03-15T07:26:06.448Z,7.02
2019-03-15T07:27:12.838Z,7.02
2019-03-15T07:28:06.287Z,6.94
2019-03-15T07:29:06.114Z,6.93
2019-03-15T07:30:06.041Z,6.98
2019-03-15T07:31:06.045Z,7.11
2019-03-15T07:32:05.870Z,7.08
2019-03-15T07:33:05.802Z,7.13
2019-03-15T07:34:05.706Z,7.09
2019-03-15T07:35:05.667Z,7.05
2019-03-15T07:36:05.579Z,7.08
2019-03-15T07:37:05.463Z,6.93
2019-03-15T07:38:05.414Z,6.93
2019-03-15T07:39:05.353Z,6.99
2019-03-15T07:40:05.274Z,7.01
2019-03-15T07:41:05.192Z,7.01
2019-03-15T07:42:05.104Z,6.99
2019-03-15T07:43:05.482Z,7.05
2019-03-15T07:44:04.897Z,6.98
2019-03-15T07:45:04.861Z,6.93
2019-03-15T07:46:04.732Z,7.09
2019-03-15T07:47:04.675Z,6.96
2019-03-15T07:48:04.608Z,6.99
2019-03-15T07:49:04.501Z,7.02
2019-03-15T07:50:04.422Z,7.09
2019-03-15T07:51:04.360Z,7.12
2019-03-15T07:52:04.308Z,7.01
2019-03-15T07:53:04.166Z,7.11
2019-03-15T07:54:04.101Z,7.06
2019-03-15T07:55:04.002Z,6.94
2019-03-15T07:56:03.982Z,6.99
2019-03-15T07:57:03.839Z,6.96
2019-03-15T07:58:03.761Z,6.99
2019-03-15T07:59:03.673Z,6.96
2019-03-15T08:00:03.647Z,6.91
2019-03-15T08:01:03.543Z,6.86
2019-03-15T08:02:03.474Z,6.86
2019-03-15T08:03:03.398Z,6.87
2019-03-15T08:04:15.943Z,6.87
2019-03-15T08:05:03.193Z,6.88
2019-03-15T08:06:03.109Z,6.88
2019-03-15T08:07:03.056Z,6.91
2019-03-15T08:08:02.949Z,6.93
2019-03-15T08:09:02.871Z,6.98
2019-03-15T08:10:02.823Z,6.94
2019-03-15T08:11:02.750Z,6.88
2019-03-15T08:12:02.634Z,6.99
2019-03-15T08:13:02.578Z,6.91
2019-03-15T08:14:02.516Z,6.93
2019-03-15T08:15:02.422Z,6.93
2019-03-15T08:16:02.316Z,6.93
2019-03-15T08:17:02.218Z,6.93
2019-03-15T08:18:02.194Z,7.02
2019-03-15T08:19:04.853Z,6.91
2019-03-15T08:20:01.984Z,6.90
2019-03-15T08:21:01.890Z,6.96
2019-03-15T08:22:01.849Z,6.96
2019-03-15T08:23:01.780Z,6.90
2019-03-15T08:24:01.659Z,6.86
2019-03-15T08:25:01.602Z,7.01
2019-03-15T08:26:01.530Z,6.93
2019-03-15T08:27:01.407Z,6.90
2019-03-15T08:28:01.374Z,6.93
2019-03-15T08:29:01.243Z,6.87
2019-03-15T08:30:01.169Z,6.90
2019-03-15T08:31:01.088Z,6.93
2019-03-15T08:32:01.055Z,7.01
2019-03-15T08:33:10.013Z,7.02
2019-03-15T08:34:00.882Z,6.93
2019-03-15T08:35:03.645Z,6.96
2019-03-15T08:36:00.713Z,6.99
2019-03-15T08:37:00.646Z,6.96
2019-03-15T08:38:00.595Z,7.01
2019-03-15T08:39:00.447Z,7.09
2019-03-15T08:40:00.414Z,7.12
2019-03-15T08:41:00.318Z,7.13
2019-03-15T08:42:00.198Z,7.08
2019-03-15T08:43:00.161Z,7.19
2019-03-15T08:44:00.082Z,7.16
2019-03-15T08:45:00.015Z,7.19
2019-03-15T08:46:02.751Z,7.23
2019-03-15T08:46:59.791Z,7.20
2019-03-15T08:47:59.753Z,7.29
2019-03-15T08:48:59.629Z,7.26
2019-03-15T08:49:59.543Z,7.30
2019-03-15T08:50:59.471Z,7.27
2019-03-15T08:52:04.075Z,7.31
2019-03-15T08:52:59.297Z,7.34
2019-03-15T08:53:59.222Z,7.38
2019-03-15T08:55:05.174Z,7.39
2019-03-15T08:55:59.122Z,7.38
2019-03-15T08:56:58.990Z,7.38
2019-03-15T08:57:58.933Z,7.39
2019-03-15T08:58:58.812Z,7.45
2019-03-15T08:59:58.812Z,7.44
2019-03-15T09:00:58.648Z,7.35
2019-03-15T09:01:58.571Z,7.39
2019-03-15T09:02:58.487Z,7.37
2019-03-15T09:03:58.593Z,7.37
2019-03-15T09:04:58.374Z,7.39
2019-03-15T09:05:58.288Z,7.39
2019-03-15T09:06:58.217Z,7.42
2019-03-15T09:07:58.100Z,7.37
2019-03-15T09:08:58.015Z,7.45
2019-03-15T09:09:57.945Z,7.38
2019-03-15T09:10:57.847Z,7.39
2019-03-15T09:11:57.799Z,7.39
2019-03-15T09:12:57.751Z,7.41
2019-03-15T09:13:57.613Z,7.45
2019-03-15T09:14:57.573Z,7.49
2019-03-15T09:15:57.516Z,7.38
2019-03-15T09:16:57.398Z,7.44
2019-03-15T09:17:57.323Z,7.38
2019-03-15T09:18:57.250Z,7.45
2019-03-15T09:19:57.124Z,7.47
2019-03-15T09:20:57.041Z,7.53
2019-03-15T09:22:00.329Z,7.55
2019-03-15T09:22:56.938Z,7.42
2019-03-15T09:23:56.801Z,7.53
2019-03-15T09:24:56.751Z,7.53
2019-03-15T09:25:56.631Z,7.52
2019-03-15T09:26:56.592Z,7.52
2019-03-15T09:27:56.471Z,7.52
2019-03-15T09:28:56.393Z,7.53
2019-03-15T09:29:56.325Z,7.42
2019-03-15T09:30:56.272Z,7.42
2019-03-15T09:32:05.490Z,7.42
2019-03-15T09:32:56.131Z,7.41
2019-03-15T09:33:56.027Z,7.38
2019-03-15T09:34:55.947Z,7.41
2019-03-15T09:35:55.898Z,7.39
2019-03-15T09:36:55.789Z,7.31
2019-03-15T09:37:55.688Z,7.39
2019-03-15T09:38:55.661Z,7.34
2019-03-15T09:39:55.564Z,7.38
2019-03-15T09:40:55.417Z,7.39
2019-03-15T09:41:55.414Z,7.35
2019-03-15T09:42:55.267Z,7.39
2019-03-15T09:43:55.243Z,7.37
2019-03-15T09:44:55.098Z,7.35
2019-03-15T09:45:55.730Z,7.39
2019-03-15T09:46:54.951Z,7.35
2019-03-15T09:47:54.888Z,7.31
2019-03-15T09:48:54.840Z,7.34
2019-03-15T09:49:54.750Z,7.34
2019-03-15T09:50:54.612Z,7.39
2019-03-15T09:51:54.529Z,7.37
2019-03-15T09:52:54.460Z,7.38
2019-03-15T09:53:54.406Z,7.27
2019-03-15T09:54:54.308Z,7.30
2019-03-15T09:55:54.216Z,7.27
2019-03-15T09:56:54.167Z,7.35
2019-03-15T09:57:54.096Z,7.27
2019-03-15T09:58:53.967Z,7.27
2019-03-15T09:59:53.884Z,7.12
2019-03-15T10:00:53.832Z,7.13
2019-03-15T10:01:53.728Z,7.16
2019-03-15T10:02:55.962Z,7.09
2019-03-15T10:03:53.597Z,7.08
2019-03-15T10:04:53.474Z,7.08
2019-03-15T10:05:53.400Z,7.02
2019-03-15T10:06:53.331Z,7.06
2019-03-15T10:07:53.240Z,7.17
2019-03-15T10:08:53.205Z,7.09
2019-03-15T10:09:53.084Z,7.13
2019-03-15T10:10:52.992Z,7.03
2019-03-15T10:11:56.242Z,7.12
2019-03-15T10:13:04.928Z,7.02
2019-03-15T10:13:52.748Z,7.11
2019-03-15T10:14:52.670Z,6.99
2019-03-15T10:15:55.508Z,7.05
2019-03-15T10:16:52.522Z,6.94
2019-03-15T10:17:52.537Z,6.94
2019-03-15T10:18:52.349Z,6.93
2019-03-15T10:19:52.313Z,7.01
2019-03-15T10:20:52.183Z,6.93
2019-03-15T10:21:52.102Z,6.96
2019-03-15T10:23:05.351Z,7.08
2019-03-15T10:23:51.946Z,7.09
2019-03-15T10:24:51.859Z,7.06
2019-03-15T10:25:51.833Z,7.03
2019-03-15T10:26:51.760Z,7.03
2019-03-15T10:27:51.619Z,6.96
2019-03-15T10:28:51.560Z,6.96
2019-03-15T10:29:51.520Z,6.98
2019-03-15T10:30:51.437Z,6.96
2019-03-15T10:31:51.333Z,6.96
2019-03-15T10:32:51.277Z,6.98
2019-03-15T10:33:51.150Z,7.09
2019-03-15T10:34:51.139Z,6.96
2019-03-15T10:35:51.041Z,6.98
2019-03-15T10:36:50.887Z,6.96
2019-03-15T10:37:50.850Z,6.99
2019-03-15T10:38:50.808Z,6.88
2019-03-15T10:39:50.651Z,6.93
2019-03-15T10:40:50.573Z,7.01
2019-03-15T10:41:50.514Z,6.96
2019-03-15T10:42:50.424Z,6.94
2019-03-15T10:43:50.397Z,6.90
2019-03-15T10:44:50.268Z,6.93
2019-03-15T10:45:50.219Z,6.94
2019-03-15T10:46:50.087Z,7.01
2019-03-15T10:47:50.040Z,6.98
2019-03-15T10:48:49.959Z,7.03
2019-03-15T10:49:49.836Z,6.98
2019-03-15T10:50:49.754Z,6.99
2019-03-15T10:51:49.674Z,6.98
2019-03-15T10:52:49.597Z,6.96
2019-03-15T10:53:49.517Z,7.01
2019-03-15T10:54:49.472Z,6.99
2019-03-15T10:55:59.409Z,7.09
2019-03-15T10:56:49.315Z,7.08
2019-03-15T10:57:49.192Z,7.09
2019-03-15T10:58:49.150Z,7.09
2019-03-15T10:59:49.032Z,7.21
2019-03-15T11:00:48.980Z,7.23
2019-03-15T11:01:48.870Z,7.16
2019-03-15T11:02:48.834Z,7.19
2019-03-15T11:03:48.771Z,7.12
2019-03-15T11:04:48.636Z,7.31
2019-03-15T11:05:48.577Z,7.29
2019-03-15T11:06:48.475Z,7.27
2019-03-15T11:07:48.418Z,7.35
2019-03-15T11:08:48.316Z,7.38
2019-03-15T11:09:48.219Z,7.35
2019-03-15T11:10:48.204Z,7.42
2019-03-15T11:11:48.107Z,7.45
2019-03-15T11:12:47.988Z,7.45
2019-03-15T11:13:47.939Z,7.55
2019-03-15T11:14:47.819Z,7.53
2019-03-15T11:15:47.775Z,7.39
2019-03-15T11:16:47.650Z,7.35
2019-03-15T11:17:47.607Z,7.30
2019-03-15T11:18:47.547Z,7.35
2019-03-15T11:19:47.410Z,7.37
2019-03-15T11:20:47.382Z,7.47
2019-03-15T11:21:47.284Z,7.53
2019-03-15T11:22:47.180Z,7.62
2019-03-15T11:23:47.113Z,7.60
2019-03-15T11:24:47.058Z,7.63
2019-03-15T11:25:46.933Z,7.42
2019-03-15T11:26:46.898Z,7.56
2019-03-15T11:27:46.767Z,7.57
2019-03-15T11:28:46.682Z,7.64
2019-03-15T11:29:46.604Z,7.63
2019-03-15T11:30:46.526Z,7.45
2019-03-15T11:31:46.442Z,7.57
2019-03-15T11:32:46.403Z,7.47
2019-03-15T11:33:47.560Z,7.45
2019-03-15T11:34:46.198Z,7.47
2019-03-15T11:35:46.114Z,7.47
2019-03-15T11:36:57.879Z,7.48
2019-03-15T11:37:45.953Z,7.42
2019-03-15T11:38:45.882Z,7.48
2019-03-15T11:39:45.889Z,7.45
2019-03-15T11:40:45.718Z,7.49
2019-03-15T11:41:45.681Z,7.53
2019-03-15T11:42:45.585Z,7.67
2019-03-15T11:43:45.518Z,7.59
2019-03-15T11:44:45.400Z,7.57
2019-03-15T11:45:45.360Z,7.57
2019-03-15T11:46:45.240Z,7.60
2019-03-15T11:48:01.787Z,7.60
2019-03-15T11:48:45.122Z,7.70
2019-03-15T11:49:45.038Z,7.73
2019-03-15T11:50:44.932Z,7.70
2019-03-15T11:51:44.871Z,7.72
2019-03-15T11:52:44.743Z,7.82
2019-03-15T11:53:44.683Z,7.82
2019-03-15T11:54:44.629Z,7.90
2019-03-15T11:55:44.541Z,7.88
2019-03-15T11:56:44.480Z,7.88
2019-03-15T11:57:44.367Z,7.97
2019-03-15T11:58:44.319Z,7.94
2019-03-15T11:59:44.412Z,7.94
2019-03-15T12:00:44.149Z,7.93
2019-03-15T12:01:44.095Z,7.94
2019-03-15T12:02:44.056Z,8.01
2019-03-15T12:03:53.117Z,8.01
2019-03-15T12:04:43.825Z,8.04
2019-03-15T12:05:43.733Z,8.01
2019-03-15T12:06:43.671Z,8.06
2019-03-15T12:07:43.655Z,8.09
2019-03-15T12:08:43.583Z,8.11
2019-03-15T12:09:43.497Z,8.12
2019-03-15T12:10:43.400Z,8.06
2019-03-15T12:11:43.302Z,7.97
2019-03-15T12:12:43.193Z,8.11
2019-03-15T12:13:43.153Z,8.17
2019-03-15T12:14:43.108Z,8.17
2019-03-15T12:15:42.999Z,8.15
2019-03-15T12:16:42.913Z,8.15
2019-03-15T12:17:42.832Z,8.25
2019-03-15T12:18:42.679Z,8.09
2019-03-15T12:19:42.655Z,8.24
2019-03-15T12:20:42.635Z,8.25
2019-03-15T12:21:42.467Z,8.27
2019-03-15T12:22:42.444Z,8.34
2019-03-15T12:23:42.263Z,8.27
2019-03-15T12:24:42.257Z,8.32
2019-03-15T12:25:42.098Z,8.27
2019-03-15T12:26:42.099Z,8.27
2019-03-15T12:27:42.015Z,8.33
2019-03-15T12:28:42.062Z,8.36
2019-03-15T12:29:41.933Z,8.40
2019-03-15T12:30:43.016Z,8.36
2019-03-15T12:31:41.834Z,8.40
2019-03-15T12:32:41.614Z,8.40
2019-03-15T12:33:41.496Z,8.43
2019-03-15T12:34:41.403Z,8.40
2019-03-15T12:35:41.341Z,8.52
2019-03-15T12:36:41.275Z,8.37
2019-03-15T12:37:41.260Z,8.44
2019-03-15T12:38:41.091Z,8.42
2019-03-15T12:39:40.974Z,8.37
2019-03-15T12:40:41.039Z,8.42
2019-03-15T12:41:40.950Z,8.40
2019-03-15T12:42:40.786Z,8.43
2019-03-15T12:43:40.714Z,8.50
2019-03-15T12:44:40.667Z,8.51
2019-03-15T12:45:40.550Z,8.58
2019-03-15T12:46:40.543Z,8.52
2019-03-15T12:47:40.406Z,8.54
2019-03-15T12:48:40.333Z,8.57
2019-03-15T12:49:40.379Z,8.60
2019-03-15T12:50:40.277Z,8.65
2019-03-15T12:51:40.117Z,8.62
2019-03-15T12:52:47.002Z,8.68
2019-03-15T12:53:39.885Z,8.58
2019-03-15T12:54:39.857Z,8.60
2019-03-15T12:55:39.685Z,8.76
2019-03-15T12:56:52.863Z,8.76
2019-03-15T12:57:39.557Z,8.82
2019-03-15T12:58:39.530Z,8.87
2019-03-15T12:59:39.456Z,8.84
2019-03-15T13:00:39.410Z,8.94
2019-03-15T13:01:39.282Z,8.94
2019-03-15T13:02:39.129Z,8.98
2019-03-15T13:03:39.115Z,9.05
2019-03-15T13:04:39.050Z,8.88
2019-03-15T13:05:38.954Z,8.90
2019-03-15T13:06:38.838Z,9.02
2019-03-15T13:07:38.836Z,9.00
2019-03-15T13:08:38.659Z,9.02
2019-03-15T13:09:38.605Z,9.09
2019-03-15T13:10:38.505Z,9.03
2019-03-15T13:11:38.465Z,9.13
2019-03-15T13:12:38.373Z,9.19
2019-03-15T13:13:38.281Z,9.28
2019-03-15T13:14:38.209Z,9.25
2019-03-15T13:15:38.199Z,9.13
2019-03-15T13:16:38.117Z,9.34
2019-03-15T13:17:37.978Z,9.27